Sainte-Monique, Canada
Current Conditions -  °F | °C
As of 7:50 PM on Monday 24 Nov 2014 (Local Time) from CYRQ Reporting Station
Moderate Rain Moderate Rain  
Wind Chill: 55°   Ceiling: 5500
Heat Index: 55°   Visibility: 3mi
Dew Point: 54°   Wind: 24mph
Humidity: 94%   Direction: 220°SW
Pressure: 29.3"   Gusts: 43mph
Location:  46.18°N, 72.5°W
Report Text: CYRQ 250050Z AUTO 22021G37KT 210V280 3SM RA BR FEW020 SCT035 BKN055 OVC076 13/12 A2930 RMK PRESRR SLP925 DENSITY ALT 700FT
Loading
Personal Weather Stations






























Interactive Weather Map New forecast layout! Learn more

10-Day Weather Forecast

Advertisements
Track Severe Weather on mobile